Time;durP1;ratioP1;P1;durP2;ratioP2;P2;SDS_P1;SDS_P2;PMS_P1;PMS_P2;Temp;Humidity;BMP_temperature;BMP_pressure;BME280_temperature;BME280_humidity;BME280_pressure;Samples;Min_cycle;Max_cycle;Signal;HPM_P1;HPM_P2
2023/06/03 00:00:24;;;;;;;15.18;8.50;;;;;;;12.06;98.65;102007.56;5015987;28;20060;-81
2023/06/03 00:02:52;;;;;;;13.10;8.82;;;;;;;12.02;99.17;102004.28;5009794;28;20073;-80
2023/06/03 00:05:20;;;;;;;16.92;9.23;;;;;;;12.07;100.00;102004.00;5006439;28;20105;-81
2023/06/03 00:07:45;;;;;;;15.65;8.80;;;;;;;12.01;99.43;102001.69;5005442;28;20387;-81
2023/06/03 00:10:11;;;;;;;16.00;9.05;;;;;;;12.00;99.41;102003.50;5009757;28;20022;-81
2023/06/03 00:12:36;;;;;;;14.82;8.70;;;;;;;11.91;100.00;102001.44;5007298;28;20045;-81
2023/06/03 00:15:02;;;;;;;13.13;8.98;;;;;;;11.84;100.00;101997.47;5009512;28;20544;-80
2023/06/03 00:17:27;;;;;;;13.05;9.43;;;;;;;11.85;100.00;101999.16;5009404;28;20034;-81
2023/06/03 00:19:54;;;;;;;15.32;9.13;;;;;;;11.87;100.00;101998.13;5004467;28;20394;-80
2023/06/03 00:22:21;;;;;;;14.32;8.93;;;;;;;11.84;99.77;102002.75;5006456;28;20542;-80
2023/06/03 00:24:47;;;;;;;21.40;9.73;;;;;;;11.86;100.00;102006.97;5007629;28;20026;-80
2023/06/03 00:27:14;;;;;;;15.90;9.93;;;;;;;11.82;100.00;102010.75;5007557;28;20967;-81
2023/06/03 00:29:40;;;;;;;19.30;9.68;;;;;;;11.84;100.00;102011.50;5007462;28;20088;-81
2023/06/03 00:32:05;;;;;;;20.08;10.18;;;;;;;11.86;100.00;102004.34;5007697;28;20533;-81
2023/06/03 00:34:31;;;;;;;20.90;9.40;;;;;;;11.84;98.98;102019.41;5008145;28;20022;-80
2023/06/03 00:36:56;;;;;;;15.35;9.35;;;;;;;11.78;99.33;102011.03;5007436;28;20032;-80
2023/06/03 00:39:23;;;;;;;18.42;9.45;;;;;;;11.73;98.96;102006.00;5005338;28;20049;-80
2023/06/03 00:41:51;;;;;;;15.57;9.23;;;;;;;11.75;98.68;102003.28;5002996;28;20516;-81
2023/06/03 00:44:17;;;;;;;16.00;9.82;;;;;;;11.71;99.20;102001.75;5008480;28;20049;-81
2023/06/03 00:46:42;;;;;;;16.02;8.70;;;;;;;11.63;98.71;102009.28;5008249;28;20030;-80
2023/06/03 00:49:08;;;;;;;20.33;9.40;;;;;;;11.62;98.93;102008.44;5008317;28;20033;-81
2023/06/03 00:51:35;;;;;;;18.23;9.60;;;;;;;11.56;99.05;102009.63;5007556;28;20108;-81
2023/06/03 00:54:01;;;;;;;15.57;10.10;;;;;;;11.53;98.83;102003.69;5008052;28;20100;-80
2023/06/03 00:56:27;;;;;;;13.80;9.30;;;;;;;11.50;98.63;102006.50;4996176;28;20030;-81
2023/06/03 00:58:54;;;;;;;16.25;9.52;;;;;;;11.49;98.50;102003.03;5003153;28;20030;-80
2023/06/03 01:01:21;;;;;;;16.45;9.52;;;;;;;11.42;98.46;102001.69;5026021;28;20029;-81
2023/06/03 01:03:47;;;;;;;14.25;9.15;;;;;;;11.38;98.61;102001.97;5029079;28;20036;-80
2023/06/03 01:06:24;;;;;;;18.17;9.73;;;;;;;11.41;98.56;102004.44;5028608;28;20021;-81
2023/06/03 01:09:16;;;;;;;17.98;9.85;;;;;;;11.32;98.81;102004.97;5030605;28;20030;-81
2023/06/03 01:12:11;;;;;;;14.75;9.10;;;;;;;11.33;98.82;102002.25;5036547;28;20046;-80
2023/06/03 01:14:43;;;;;;;14.13;9.73;;;;;;;11.28;98.81;102005.16;5011939;28;20037;-80
2023/06/03 01:17:12;;;;;;;21.90;9.45;;;;;;;11.25;98.80;101999.22;5001983;28;20186;-80
2023/06/03 01:19:48;;;;;;;15.18;8.88;;;;;;;11.19;98.99;102000.41;5012346;28;20105;-80
2023/06/03 01:22:24;;;;;;;14.60;9.25;;;;;;;11.18;98.83;102003.97;5008654;28;20034;-81
2023/06/03 01:24:50;;;;;;;14.38;9.07;;;;;;;11.20;98.35;102001.25;4992374;28;20026;-81
2023/06/03 01:27:15;;;;;;;16.85;9.38;;;;;;;11.15;98.26;102003.31;5019281;28;20092;-81
2023/06/03 01:29:43;;;;;;;14.45;9.27;;;;;;;11.09;98.75;102009.78;5007406;28;20022;-80
2023/06/03 01:32:13;;;;;;;17.83;9.70;;;;;;;11.08;99.23;102005.44;5010198;28;20721;-80
2023/06/03 01:34:41;;;;;;;16.67;10.00;;;;;;;11.00;98.79;102007.69;5010473;28;20035;-80
2023/06/03 01:37:08;;;;;;;13.70;8.70;;;;;;;11.05;98.63;102008.25;5008547;28;20108;-80
2023/06/03 01:39:34;;;;;;;15.18;9.35;;;;;;;11.00;98.90;102005.03;5010917;28;20084;-80
2023/06/03 01:42:00;;;;;;;16.95;9.23;;;;;;;10.99;98.58;102000.72;5008039;28;20038;-79
2023/06/03 01:44:26;;;;;;;13.95;9.27;;;;;;;10.94;98.77;101993.06;5007766;28;20498;-79
2023/06/03 01:46:54;;;;;;;14.77;9.73;;;;;;;10.93;99.05;101998.44;5018841;28;20030;-79
2023/06/03 01:49:20;;;;;;;19.88;9.57;;;;;;;10.97;98.51;101999.94;5008960;28;20581;-80
2023/06/03 01:51:45;;;;;;;15.35;9.68;;;;;;;10.95;98.65;101996.56;5011593;28;20104;-81
2023/06/03 01:54:11;;;;;;;18.25;9.35;;;;;;;10.97;98.49;102006.06;5009621;28;20101;-80
2023/06/03 01:56:36;;;;;;;17.92;9.95;;;;;;;10.98;98.51;102005.13;5026522;28;20057;-81
2023/06/03 01:59:01;;;;;;;17.95;9.98;;;;;;;10.99;98.27;101998.06;5030675;28;20415;-81
2023/06/03 02:01:27;;;;;;;19.27;9.90;;;;;;;11.01;97.70;101998.00;5018801;28;20021;-80
2023/06/03 02:03:54;;;;;;;15.23;9.93;;;;;;;10.98;97.71;101999.88;5012605;28;20029;-81
2023/06/03 02:06:20;;;;;;;17.08;9.30;;;;;;;10.99;97.63;101993.66;5019496;28;20034;-80
2023/06/03 02:08:49;;;;;;;18.23;10.00;;;;;;;11.02;97.81;101992.63;5011555;28;20040;-80
2023/06/03 02:11:14;;;;;;;18.90;9.60;;;;;;;11.04;97.21;101998.66;5010838;28;20060;-80
2023/06/03 02:13:40;;;;;;;19.33;9.73;;;;;;;11.05;97.29;102008.25;5011862;28;20069;-80
2023/06/03 02:16:06;;;;;;;21.08;9.88;;;;;;;11.06;96.69;101999.41;5009880;28;20029;-80
2023/06/03 02:18:31;;;;;;;16.83;8.82;;;;;;;11.04;96.44;101985.50;5007456;28;20028;-80
2023/06/03 02:20:57;;;;;;;14.27;8.63;;;;;;;11.07;96.13;102001.13;5010174;28;20057;-80
2023/06/03 02:23:22;;;;;;;20.20;8.38;;;;;;;11.12;96.24;101992.94;5010569;28;20022;-80
2023/06/03 02:25:51;;;;;;;14.70;8.55;;;;;;;11.13;95.34;101995.50;5014319;28;20083;-80
2023/06/03 02:28:22;;;;;;;15.25;8.85;;;;;;;11.13;95.25;102000.75;5010619;28;20106;-80
2023/06/03 02:30:48;;;;;;;18.08;8.75;;;;;;;11.20;95.43;101995.97;5010379;28;20029;-80
2023/06/03 02:33:14;;;;;;;15.65;8.13;;;;;;;11.18;94.77;101996.06;5006071;28;20025;-79
2023/06/03 02:35:39;;;;;;;15.85;8.38;;;;;;;11.18;94.77;101997.84;5008599;28;20072;-80
2023/06/03 02:38:04;;;;;;;14.80;8.40;;;;;;;11.18;94.82;102001.34;5007276;28;20072;-80
2023/06/03 02:40:30;;;;;;;13.55;8.55;;;;;;;11.19;94.90;101999.56;5008308;28;20033;-81
2023/06/03 02:42:55;;;;;;;14.43;8.15;;;;;;;11.21;94.83;102000.34;5006909;28;20062;-79
2023/06/03 02:45:20;;;;;;;15.73;8.68;;;;;;;11.21;94.65;101997.72;5008482;28;20038;-80
2023/06/03 02:47:46;;;;;;;14.98;8.45;;;;;;;11.22;94.15;101997.63;5008064;28;20100;-80
2023/06/03 02:50:11;;;;;;;14.88;8.70;;;;;;;11.24;93.97;101995.75;5009560;28;20232;-80
2023/06/03 02:52:36;;;;;;;18.13;8.55;;;;;;;11.25;93.95;102001.84;5003004;28;20447;-80
2023/06/03 02:55:03;;;;;;;16.02;8.25;;;;;;;11.25;93.81;102004.50;5012756;28;20409;-80
2023/06/03 02:57:28;;;;;;;11.73;8.43;;;;;;;11.29;93.63;102003.38;5010602;28;20030;-80
2023/06/03 02:59:58;;;;;;;15.23;8.77;;;;;;;11.29;93.39;102001.59;5007741;28;20048;-80
2023/06/03 03:02:25;;;;;;;13.85;7.80;;;;;;;11.34;93.17;102005.72;5006533;28;20030;-80
2023/06/03 03:04:51;;;;;;;13.82;8.27;;;;;;;11.34;92.99;101995.19;5006007;28;20025;-80
2023/06/03 03:07:17;;;;;;;15.60;8.05;;;;;;;11.37;92.03;102000.28;5008789;28;20494;-80
2023/06/03 03:09:44;;;;;;;14.52;8.00;;;;;;;11.36;92.65;101995.94;4999690;28;20033;-80
2023/06/03 03:12:10;;;;;;;13.00;7.65;;;;;;;11.37;92.38;102001.13;4999113;28;20041;-80
2023/06/03 03:14:35;;;;;;;13.73;8.35;;;;;;;11.39;92.36;101998.41;5008407;28;20399;-80
2023/06/03 03:17:01;;;;;;;16.10;8.23;;;;;;;11.35;92.49;102005.63;5008641;28;20096;-80
2023/06/03 03:19:26;;;;;;;15.63;8.10;;;;;;;11.34;92.29;102008.38;5010136;28;20112;-80
2023/06/03 03:21:53;;;;;;;11.80;7.72;;;;;;;11.30;92.28;102011.19;5009502;28;20022;-80
2023/06/03 03:24:19;;;;;;;16.58;7.60;;;;;;;11.29;92.52;102011.28;5008394;28;20026;-80
2023/06/03 03:26:45;;;;;;;14.07;8.15;;;;;;;11.28;92.25;102009.56;5007522;28;20486;-80
2023/06/03 03:29:10;;;;;;;12.10;7.70;;;;;;;11.24;92.79;102003.63;5006876;28;20049;-80
2023/06/03 03:31:35;;;;;;;13.75;7.90;;;;;;;11.22;92.47;102016.06;5009451;28;20021;-80
2023/06/03 03:34:02;;;;;;;13.55;8.27;;;;;;;11.20;92.28;102015.25;5004605;28;20475;-80
2023/06/03 03:36:30;;;;;;;15.00;8.55;;;;;;;11.18;92.45;102014.50;5006043;28;20033;-80
2023/06/03 03:39:06;;;;;;;13.38;8.00;;;;;;;11.18;92.74;102013.66;5005574;28;20645;-80
2023/06/03 03:41:32;;;;;;;15.43;8.10;;;;;;;11.15;92.70;102019.09;5014382;28;20037;-80
2023/06/03 03:43:58;;;;;;;13.90;7.60;;;;;;;11.15;92.39;102017.31;5007984;28;20046;-80
2023/06/03 03:46:24;;;;;;;12.70;8.02;;;;;;;11.12;92.55;102014.00;5008454;28;20586;-80
2023/06/03 03:48:50;;;;;;;11.65;8.15;;;;;;;11.14;92.90;102018.25;5007793;28;20034;-80
2023/06/03 03:51:16;;;;;;;15.48;8.38;;;;;;;11.13;92.55;102011.28;5009711;28;20026;-79
2023/06/03 03:53:46;;;;;;;12.82;8.13;;;;;;;11.11;92.75;102012.31;5009889;28;20029;-80
2023/06/03 03:56:17;;;;;;;14.40;7.70;;;;;;;11.13;92.49;102013.94;5020823;28;20029;-80
2023/06/03 03:58:44;;;;;;;12.55;8.30;;;;;;;11.13;92.15;102020.97;4993633;28;20494;-79
2023/06/03 04:01:18;;;;;;;13.75;8.32;;;;;;;11.24;92.35;102027.34;4989698;28;20034;-79
2023/06/03 04:03:48;;;;;;;12.32;7.80;;;;;;;11.66;90.30;102020.50;4988331;28;20046;-79
2023/06/03 04:06:29;;;;;;;13.65;7.75;;;;;;;12.30;87.66;102019.22;5020685;28;20381;-80
2023/06/03 04:08:56;;;;;;;13.88;7.57;;;;;;;12.82;84.59;102011.50;5029463;28;20021;-80
2023/06/03 04:11:29;;;;;;;12.43;7.15;;;;;;;13.51;81.62;102014.03;5028909;28;20071;-80
2023/06/03 04:13:57;;;;;;;12.48;7.15;;;;;;;13.78;78.75;102015.66;5028464;28;20025;-80
2023/06/03 04:16:53;;;;;;;12.43;6.80;;;;;;;14.14;78.54;102007.91;5007513;28;20022;-80
2023/06/03 04:19:32;;;;;;;20.77;7.03;;;;;;;14.64;73.99;102014.94;4990334;28;20026;-80
2023/06/03 04:22:02;;;;;;;12.00;6.20;;;;;;;14.10;74.46;102016.06;4998238;28;20026;-80
2023/06/03 04:24:28;;;;;;;11.07;6.15;;;;;;;13.69;75.92;102020.72;5008893;28;20034;-81
2023/06/03 04:26:54;;;;;;;14.85;6.28;;;;;;;13.20;78.13;102026.66;5020075;28;20450;-80
2023/06/03 04:29:20;;;;;;;12.82;6.35;;;;;;;12.91;79.39;102025.91;5007698;28;20041;-79
2023/06/03 04:31:45;;;;;;;10.70;6.90;;;;;;;12.67;80.90;102024.81;5004951;28;20030;-80
2023/06/03 04:34:11;;;;;;;13.05;6.97;;;;;;;12.50;81.32;102023.25;5005985;28;20022;-80
2023/06/03 04:36:36;;;;;;;10.40;6.40;;;;;;;12.47;81.70;102026.94;5007121;28;20442;-79
2023/06/03 04:39:05;;;;;;;9.90;6.70;;;;;;;12.34;82.03;102033.06;5007004;28;20069;-79
2023/06/03 04:41:34;;;;;;;15.18;7.07;;;;;;;12.23;82.72;102026.69;5008852;28;20108;-79
2023/06/03 04:44:01;;;;;;;11.43;7.05;;;;;;;12.27;82.86;102032.63;5009222;28;20184;-79
2023/06/03 04:46:31;;;;;;;14.30;6.45;;;;;;;12.24;82.55;102028.38;5010432;28;20034;-80
2023/06/03 04:48:57;;;;;;;11.60;6.72;;;;;;;12.20;82.36;102029.50;5006735;28;20022;-79
2023/06/03 04:51:29;;;;;;;10.18;5.82;;;;;;;12.13;82.82;102030.00;5011887;28;20034;-80
2023/06/03 04:53:56;;;;;;;15.25;6.68;;;;;;;12.09;82.81;102028.47;5012223;28;20049;-80
2023/06/03 04:56:25;;;;;;;12.43;6.68;;;;;;;12.12;83.11;102033.56;5025055;28;20029;-81
2023/06/03 04:58:55;;;;;;;9.57;6.57;;;;;;;12.09;82.98;102034.59;5010575;28;20049;-79
2023/06/03 05:01:24;;;;;;;8.82;6.45;;;;;;;12.12;82.96;102036.22;5010173;28;20030;-80
2023/06/03 05:03:51;;;;;;;9.98;6.47;;;;;;;12.12;82.17;102038.84;5011081;28;20525;-79
2023/06/03 05:06:17;;;;;;;10.45;6.25;;;;;;;12.11;82.70;102038.00;5009247;28;20030;-80
2023/06/03 05:08:42;;;;;;;13.27;6.47;;;;;;;12.12;82.05;102033.56;5011807;28;20030;-80
2023/06/03 05:11:08;;;;;;;11.40;6.75;;;;;;;12.14;81.80;102043.09;5012573;28;20037;-79
2023/06/03 05:13:34;;;;;;;8.00;6.20;;;;;;;12.16;81.11;102029.78;5010027;28;20494;-79
2023/06/03 05:16:03;;;;;;;10.52;6.00;;;;;;;12.20;81.28;102039.22;5011378;28;20474;-80
2023/06/03 05:18:29;;;;;;;9.52;5.93;;;;;;;12.25;81.19;102039.78;5011359;28;20033;-80
2023/06/03 05:20:54;;;;;;;11.13;6.28;;;;;;;12.22;79.53;102042.59;5009474;28;20030;-79
2023/06/03 05:23:19;;;;;;;10.73;5.90;;;;;;;12.27;79.48;102043.16;5010829;28;20057;-80
2023/06/03 05:25:45;;;;;;;13.13;6.20;;;;;;;12.31;79.32;102036.75;5018049;28;20063;-80
2023/06/03 05:28:11;;;;;;;9.98;6.43;;;;;;;12.33;79.06;102037.50;5021572;28;20038;-81
2023/06/03 05:30:36;;;;;;;8.63;6.13;;;;;;;12.38;78.87;102035.41;5008413;28;20030;-82
2023/06/03 05:33:02;;;;;;;9.60;6.03;;;;;;;12.40;77.57;102036.16;5026283;28;20040;-79
2023/06/03 05:35:27;;;;;;;8.35;5.82;;;;;;;12.46;77.34;102038.44;5008765;28;20021;-79
2023/06/03 05:37:52;;;;;;;10.15;6.03;;;;;;;12.53;77.33;102044.19;5010999;28;20063;-82
2023/06/03 05:40:20;;;;;;;10.05;5.85;;;;;;;12.57;76.44;102039.56;5005348;28;20524;-81
2023/06/03 05:42:48;;;;;;;8.88;5.30;;;;;;;12.64;76.30;102035.59;5010103;28;20048;-79
2023/06/03 05:45:14;;;;;;;11.85;6.40;;;;;;;12.67;75.63;102046.78;5009269;28;20513;-79
2023/06/03 05:47:40;;;;;;;13.25;5.75;;;;;;;12.72;74.87;102035.94;5009606;28;20092;-80
2023/06/03 05:50:07;;;;;;;11.98;5.30;;;;;;;12.75;74.26;102033.09;5009832;28;20026;-80
2023/06/03 05:52:33;;;;;;;8.07;5.00;;;;;;;12.78;73.38;102033.75;5009507;28;20029;-80
2023/06/03 05:54:58;;;;;;;11.38;5.30;;;;;;;12.86;73.93;102028.00;5011443;28;20021;-79
2023/06/03 05:57:24;;;;;;;9.40;5.40;;;;;;;12.92;73.16;102043.44;5002432;28;20029;-81
2023/06/03 05:59:50;;;;;;;8.65;4.90;;;;;;;12.96;72.88;102034.38;5009584;28;20033;-80
2023/06/03 06:02:18;;;;;;;9.02;5.30;;;;;;;13.06;72.83;102042.53;5008289;28;20055;-78
2023/06/03 06:04:44;;;;;;;9.68;4.70;;;;;;;13.10;71.41;102042.22;5011325;28;20079;-75
2023/06/03 06:07:09;;;;;;;12.15;5.10;;;;;;;13.15;71.35;102041.94;5008775;28;20041;-76
2023/06/03 06:09:39;;;;;;;11.68;5.43;;;;;;;13.19;70.25;102043.44;5008029;28;20402;-76
2023/06/03 06:12:04;;;;;;;8.63;5.43;;;;;;;13.26;70.29;102038.63;5003553;28;20467;-76
2023/06/03 06:14:30;;;;;;;9.00;5.30;;;;;;;13.38;70.29;102038.66;4992242;28;20034;-76
2023/06/03 06:16:55;;;;;;;13.13;5.10;;;;;;;13.46;69.09;102044.28;5009357;28;20467;-75
2023/06/03 06:19:23;;;;;;;8.05;4.68;;;;;;;13.52;69.19;102035.09;5010437;28;20109;-76
2023/06/03 06:21:49;;;;;;;9.32;4.57;;;;;;;13.60;68.62;102037.19;5010448;28;20025;-81
2023/06/03 06:24:17;;;;;;;7.47;4.32;;;;;;;13.69;67.22;102053.31;5009370;28;20037;-80
2023/06/03 06:26:42;;;;;;;8.52;4.80;;;;;;;13.78;67.89;102042.09;5019180;28;20387;-81
2023/06/03 06:29:08;;;;;;;5.60;3.92;;;;;;;13.85;66.71;102046.97;5007659;28;20034;-79
2023/06/03 06:31:33;;;;;;;9.70;4.55;;;;;;;13.95;65.91;102048.03;5006285;28;20072;-81
2023/06/03 06:34:00;;;;;;;9.65;4.97;;;;;;;14.05;65.25;102057.91;4991698;28;20026;-80
2023/06/03 06:36:37;;;;;;;8.57;4.65;;;;;;;14.14;64.58;102059.06;5008568;28;20068;-80
2023/06/03 06:39:03;;;;;;;11.70;4.47;;;;;;;14.22;63.61;102048.78;5009686;28;20091;-79
2023/06/03 06:41:29;;;;;;;10.55;4.20;;;;;;;14.24;61.98;102054.81;5012619;28;20105;-77
2023/06/03 06:43:55;;;;;;;8.13;4.10;;;;;;;14.30;61.86;102051.72;5008200;28;20502;-77
2023/06/03 06:46:22;;;;;;;6.57;3.60;;;;;;;14.35;60.62;102057.53;5004403;28;20120;-72
2023/06/03 06:48:51;;;;;;;6.72;3.88;;;;;;;14.51;61.68;102048.56;5002561;28;20621;-73
2023/06/03 06:51:19;;;;;;;9.40;4.00;;;;;;;14.58;60.88;102047.16;5008453;28;20075;-76
2023/06/03 06:53:51;;;;;;;10.82;4.28;;;;;;;14.65;60.06;102053.69;5008910;28;20021;-80
2023/06/03 06:56:17;;;;;;;8.70;4.40;;;;;;;14.79;61.68;102050.88;5013408;28;20044;-83
2023/06/03 06:58:43;;;;;;;8.45;3.75;;;;;;;14.91;59.35;102046.53;5005494;28;20482;-82
2023/06/03 07:01:08;;;;;;;9.23;3.88;;;;;;;14.98;58.81;102045.97;5008856;28;20049;-79
2023/06/03 07:03:35;;;;;;;7.40;3.97;;;;;;;15.05;57.51;102052.50;5007430;28;20033;-82
2023/06/03 07:06:01;;;;;;;8.57;3.50;;;;;;;15.26;57.25;102054.53;5007019;28;20033;-83
2023/06/03 07:08:27;;;;;;;6.03;3.80;;;;;;;15.48;57.24;102048.47;5007939;28;20038;-79
2023/06/03 07:10:58;;;;;;;8.80;4.30;;;;;;;15.71;55.07;102054.72;5009940;28;20482;-81
2023/06/03 07:13:24;;;;;;;6.28;3.58;;;;;;;15.95;54.05;102047.50;5006656;28;20064;-78
2023/06/03 07:15:50;;;;;;;9.50;3.97;;;;;;;16.08;53.05;102042.09;5008475;28;20045;-78
2023/06/03 07:18:16;;;;;;;6.70;3.58;;;;;;;16.34;53.10;102037.38;4996653;28;20057;-80
2023/06/03 07:20:47;;;;;;;6.63;4.07;;;;;;;16.68;54.58;102039.06;5001524;28;20023;-79
2023/06/03 07:23:18;;;;;;;12.68;3.97;;;;;;;16.94;52.78;102041.44;4990546;28;20375;-81
2023/06/03 07:25:46;;;;;;;8.35;3.53;;;;;;;17.19;52.53;102041.09;5005930;28;20100;-78
2023/06/03 07:28:13;;;;;;;8.43;3.90;;;;;;;17.41;51.65;102035.69;5005819;28;20033;-80
2023/06/03 07:30:40;;;;;;;7.68;3.30;;;;;;;17.64;50.63;102046.22;5009347;28;20363;-78
2023/06/03 07:33:11;;;;;;;7.25;3.47;;;;;;;17.75;48.27;102046.19;5008922;28;20053;-78
2023/06/03 07:35:38;;;;;;;10.05;3.30;;;;;;;18.02;48.54;102043.81;5003205;28;20036;-81
2023/06/03 07:38:05;;;;;;;8.52;3.28;;;;;;;18.14;47.04;102033.91;5006684;28;20057;-82
2023/06/03 07:40:41;;;;;;;9.18;3.20;;;;;;;18.29;45.92;102039.72;5009312;28;20108;-82
2023/06/03 07:43:08;;;;;;;6.80;2.88;;;;;;;18.44;45.54;102039.22;5008270;28;20049;-81
2023/06/03 07:45:36;;;;;;;5.53;2.45;;;;;;;18.53;44.19;102034.06;5002871;28;20575;-81
2023/06/03 07:48:04;;;;;;;5.85;2.42;;;;;;;18.68;42.83;102036.22;5005263;28;20111;-81
2023/06/03 07:50:31;;;;;;;7.68;2.78;;;;;;;18.63;40.87;102038.47;5006447;28;20398;-81
2023/06/03 07:53:04;;;;;;;3.90;2.20;;;;;;;18.85;42.72;102040.06;5007173;28;20022;-79
2023/06/03 07:55:44;;;;;;;4.05;2.50;;;;;;;19.13;43.61;102045.53;5014922;28;20057;-80
2023/06/03 07:58:11;;;;;;;7.43;2.72;;;;;;;19.10;40.65;102046.66;5014090;28;20188;-81
2023/06/03 08:00:41;;;;;;;5.50;2.22;;;;;;;19.14;40.01;102045.41;5009288;28;20030;-80
2023/06/03 08:03:07;;;;;;;6.28;2.33;;;;;;;19.23;38.98;102044.59;4994151;28;20023;-79
2023/06/03 08:05:34;;;;;;;5.07;2.30;;;;;;;19.30;38.26;102048.38;4988381;28;20050;-80
2023/06/03 08:08:03;;;;;;;8.00;2.05;;;;;;;19.40;38.29;102041.19;5004317;28;20510;-80
2023/06/03 08:10:28;;;;;;;5.88;2.00;;;;;;;19.59;38.69;102043.03;5008800;28;20065;-79
2023/06/03 08:12:54;;;;;;;6.20;1.85;;;;;;;19.83;38.75;102037.22;5007803;28;20061;-79
2023/06/03 08:15:28;;;;;;;4.75;1.90;;;;;;;19.94;38.10;102038.88;5003737;28;20022;-80
2023/06/03 08:17:55;;;;;;;4.57;1.88;;;;;;;20.05;36.81;102032.53;5004877;28;20600;-80
2023/06/03 08:20:27;;;;;;;8.48;2.05;;;;;;;20.17;35.48;102037.53;5003303;28;20044;-79
2023/06/03 08:22:53;;;;;;;5.10;1.93;;;;;;;20.12;35.38;102047.00;5010588;28;20030;-79
2023/06/03 08:25:19;;;;;;;9.93;2.03;;;;;;;20.18;34.43;102041.91;5010927;28;20053;-79
2023/06/03 08:27:45;;;;;;;7.50;1.80;;;;;;;20.07;34.10;102028.72;5011873;28;20065;-78
2023/06/03 08:30:14;;;;;;;6.38;2.10;;;;;;;20.21;34.99;102030.06;5010546;28;20025;-79
2023/06/03 08:32:41;;;;;;;6.70;2.00;;;;;;;20.46;34.21;102032.09;5013757;28;20061;-79
2023/06/03 08:35:07;;;;;;;5.03;1.67;;;;;;;20.64;33.89;102046.34;5012249;28;20028;-79
2023/06/03 08:37:34;;;;;;;8.27;1.83;;;;;;;20.61;32.81;102037.78;5007949;28;20030;-79
2023/06/03 08:40:00;;;;;;;5.78;1.60;;;;;;;20.62;32.72;102034.94;5011155;28;20080;-78
2023/06/03 08:42:34;;;;;;;6.53;1.52;;;;;;;20.59;32.16;102029.91;5012398;28;20508;-78
2023/06/03 08:45:30;;;;;;;5.75;1.65;;;;;;;20.92;35.13;102025.75;5011155;28;20026;-78
2023/06/03 08:48:40;;;;;;;4.40;1.67;;;;;;;21.01;34.87;102026.66;5010500;28;20132;-78
2023/06/03 08:51:08;;;;;;;7.28;2.25;;;;;;;21.13;32.49;102020.09;5018568;28;20172;-79
2023/06/03 08:53:47;;;;;;;6.15;1.50;;;;;;;21.39;32.74;102016.66;5007654;28;20083;-78
2023/06/03 08:56:15;;;;;;;9.50;1.73;;;;;;;21.23;32.10;102025.41;5023203;28;20114;-78
2023/06/03 08:58:46;;;;;;;5.18;1.70;;;;;;;21.14;31.09;102032.47;5023856;28;20161;-80
2023/06/03 09:01:13;;;;;;;4.20;1.40;;;;;;;21.17;32.12;102034.84;5010603;28;20033;-79
2023/06/03 09:03:41;;;;;;;4.50;1.40;;;;;;;21.11;31.92;102035.44;5009419;28;20422;-79
2023/06/03 09:06:09;;;;;;;5.97;1.48;;;;;;;21.09;31.98;102031.25;5009759;28;20033;-78
2023/06/03 09:08:36;;;;;;;6.13;1.50;;;;;;;20.99;31.62;102025.13;5004866;28;20108;-77
2023/06/03 09:11:04;;;;;;;9.52;1.77;;;;;;;21.36;32.30;102025.00;4997188;28;20026;-78
2023/06/03 09:13:33;;;;;;;7.50;1.70;;;;;;;21.53;31.73;102022.28;5010676;28;20461;-78
2023/06/03 09:15:58;;;;;;;5.40;1.75;;;;;;;21.61;31.33;102013.47;5011400;28;20207;-78
2023/06/03 09:18:25;;;;;;;3.88;1.35;;;;;;;21.77;30.69;102031.50;5012426;28;20407;-78
2023/06/03 09:20:50;;;;;;;3.97;1.40;;;;;;;21.52;30.55;102022.44;5011859;28;20065;-78
2023/06/03 09:23:16;;;;;;;4.32;1.45;;;;;;;21.38;30.54;102025.69;5011856;28;20064;-78
2023/06/03 09:25:43;;;;;;;8.70;1.50;;;;;;;21.30;31.15;102028.31;5013647;28;20036;-79
2023/06/03 09:28:08;;;;;;;4.80;1.60;;;;;;;21.13;29.81;102033.47;5020555;28;20099;-78
2023/06/03 09:30:35;;;;;;;4.55;1.40;;;;;;;21.32;30.43;102037.03;5011493;28;20026;-77
2023/06/03 09:33:01;;;;;;;6.25;1.50;;;;;;;21.35;29.73;102017.97;5011704;28;20113;-75
2023/06/03 09:35:27;;;;;;;3.90;1.38;;;;;;;21.34;29.09;102018.97;5023499;28;20026;-77
2023/06/03 09:38:00;;;;;;;5.03;1.70;;;;;;;21.61;30.24;102021.50;5032074;28;20021;-80
2023/06/03 09:40:28;;;;;;;5.00;1.38;;;;;;;21.72;29.88;102023.94;5027091;28;20919;-77
2023/06/03 09:42:56;;;;;;;8.63;1.50;;;;;;;21.50;28.88;102027.13;4995131;28;20057;-80
2023/06/03 09:45:23;;;;;;;4.00;1.30;;;;;;;21.40;29.00;102024.53;5003581;28;20390;-80
2023/06/03 09:47:49;;;;;;;7.05;1.48;;;;;;;21.26;29.75;102015.22;5009285;28;20049;-78
2023/06/03 09:50:15;;;;;;;4.78;1.52;;;;;;;21.38;29.36;102025.69;5011511;28;20045;-80
2023/06/03 09:52:41;;;;;;;7.13;1.17;;;;;;;21.55;30.64;102017.59;5011391;28;20033;-79
2023/06/03 09:55:09;;;;;;;6.35;1.80;;;;;;;21.50;29.64;102013.72;5014451;28;20539;-79
2023/06/03 09:57:36;;;;;;;4.95;1.73;;;;;;;21.65;29.29;102017.53;5009732;28;20034;-76
2023/06/03 10:00:09;;;;;;;3.03;1.50;;;;;;;21.65;28.07;102036.28;5009333;28;20021;-78
2023/06/03 10:02:36;;;;;;;;;;;;;;;21.98;30.26;102036.47;5011220;28;20116;-78
2023/06/03 10:05:02;;;;;;;5.38;1.45;;;;;;;21.70;27.34;102030.44;5010591;28;19920;-79
2023/06/03 10:07:28;;;;;;;8.88;1.45;;;;;;;21.77;27.17;102021.63;5010944;28;20666;-79
2023/06/03 10:10:04;;;;;;;6.07;1.23;;;;;;;21.99;28.95;102025.59;5009196;28;20070;-80
2023/06/03 10:12:30;;;;;;;1.95;1.08;;;;;;;22.17;26.63;102028.25;5010186;28;20394;-77
2023/06/03 10:15:00;;;;;;;7.57;2.00;;;;;;;22.41;27.63;102025.66;5002123;28;20023;-80
2023/06/03 10:17:26;;;;;;;5.90;1.30;;;;;;;22.48;26.89;102018.66;5009930;28;20033;-78
2023/06/03 10:19:53;;;;;;;2.05;1.17;;;;;;;22.46;25.91;102017.97;5005261;28;20033;-80
2023/06/03 10:22:19;;;;;;;4.72;1.20;;;;;;;22.55;26.38;102012.63;5010675;28;20169;-78
2023/06/03 10:24:49;;;;;;;3.80;1.10;;;;;;;22.46;25.29;102017.13;5012354;28;20021;-76
2023/06/03 10:27:17;;;;;;;2.88;1.25;;;;;;;22.22;25.81;102025.06;5010683;28;20049;-77
2023/06/03 10:29:43;;;;;;;6.00;1.52;;;;;;;22.30;25.95;102007.16;5011125;28;20486;-79
2023/06/03 10:32:13;;;;;;;5.57;1.10;;;;;;;22.42;26.26;102018.47;5010970;28;20108;-78
2023/06/03 10:34:47;;;;;;;2.80;0.95;;;;;;;22.24;26.34;102021.22;5009570;28;20025;-77
2023/06/03 10:37:14;;;;;;;2.60;1.27;;;;;;;22.33;25.08;102001.47;5004142;28;20022;-77
2023/06/03 10:39:42;;;;;;;4.78;1.40;;;;;;;22.68;26.86;101997.72;5010117;28;20029;-81
2023/06/03 10:42:10;;;;;;;2.83;1.10;;;;;;;22.56;25.24;102007.09;5008742;28;20556;-79
2023/06/03 10:44:35;;;;;;;2.55;1.20;;;;;;;22.52;25.35;102005.75;5010267;28;20049;-80
2023/06/03 10:47:04;;;;;;;1.92;0.93;;;;;;;22.52;25.08;102014.63;5008311;28;20026;-83
2023/06/03 10:49:34;;;;;;;3.90;1.10;;;;;;;22.54;25.75;102009.13;5009473;28;20029;-82
2023/06/03 10:52:22;;;;;;;7.25;1.45;;;;;;;22.69;25.51;102012.00;5008090;28;20045;-77
2023/06/03 10:55:07;;;;;;;3.78;1.20;;;;;;;22.60;25.66;102003.09;5007374;28;20030;-78
2023/06/03 10:58:02;;;;;;;3.28;1.15;;;;;;;22.74;26.69;102009.66;5006801;28;20033;-77
2023/06/03 11:00:56;;;;;;;1.77;1.00;;;;;;;23.00;26.76;102015.78;4997600;28;20042;-80
2023/06/03 11:03:29;;;;;;;2.17;1.08;;;;;;;23.10;24.76;102000.34;5006939;28;20030;-81
2023/06/03 11:06:17;;;;;;;4.63;1.17;;;;;;;23.37;26.08;102001.00;5006864;28;20478;-80
2023/06/03 11:09:05;;;;;;;3.30;1.00;;;;;;;23.61;25.79;102005.53;5007825;28;20033;-79
2023/06/03 11:11:40;;;;;;;4.70;1.00;;;;;;;23.56;24.76;102000.69;5005994;28;20109;-80
2023/06/03 11:14:09;;;;;;;6.07;1.38;;;;;;;23.42;24.01;102009.41;5007065;28;20030;-78
2023/06/03 11:16:56;;;;;;;3.60;1.08;;;;;;;23.49;25.02;101999.66;5007399;28;20088;-78
2023/06/03 11:19:31;;;;;;;3.00;0.98;;;;;;;23.52;24.93;101999.31;5009064;28;20079;-79
2023/06/03 11:22:00;;;;;;;4.22;1.10;;;;;;;23.71;24.24;101995.47;5008739;28;20035;-78
2023/06/03 11:24:38;;;;;;;1.75;1.00;;;;;;;23.78;24.22;101998.28;5009731;28;20037;-78
2023/06/03 11:27:24;;;;;;;1.73;0.85;;;;;;;23.66;23.36;102000.50;5008916;28;20029;-78